CheckWX is a tool to help pilots better visualize weather data.  It is not intended as a substitute for an official pre-flight weather briefing.

17:49:16 UTC

CYKA TAF
Kamloops Airport
Kamloops, Canada
TAF CYKA 051438Z 0515/0603 VRB03KT P6SM SCT110 BECMG 0517/0519 08007KT RMK NXT FCST BY 051900Z

Jul-5@
15:00 UTC

Jul-5 @ 15:00 UTC

Jul-5@
17:00 UTC

Jul-5 @ 17:00 UTC

TAF CYKA 051438Z 0515/0603 VRB03KT P6SM SCT110

Expired

Wind
  • Variable at 3 KTS
Cloud Levels
  • Scattered at 11,000' AGL

Jul-5@
17:00 UTC

Jul-5 @ 17:00 UTC

Jul-6@
03:00 UTC

Jul-6 @ 03:00 UTC

BECMG 0517/0519 08007KT RMK NXT FCST BY 051900Z

Becoming

Becoming Conditions expected by Sun, Jul 5, 2020 @ 19:00 UTC

Wind
  • 080° at 7 KTS
Cloud Levels
  • Scattered at 11,000' AGL